sensor_id;sensor_type;location;lat;lon;timestamp;pressure;altitude;pressure_sealevel;temperature;humidity
12757;BME280;31601;48.042;12.240;2023-04-28T00:02:06;96199.34;;;9.10;67.16
12757;BME280;31601;48.042;12.240;2023-04-28T00:04:33;96191.69;;;9.09;66.94
12757;BME280;31601;48.042;12.240;2023-04-28T00:06:59;96195.28;;;9.08;66.90
12757;BME280;31601;48.042;12.240;2023-04-28T00:09:27;96192.72;;;9.00;67.23
12757;BME280;31601;48.042;12.240;2023-04-28T00:11:53;96190.56;;;9.03;66.81
12757;BME280;31601;48.042;12.240;2023-04-28T00:14:20;96196.63;;;9.04;66.75
12757;BME280;31601;48.042;12.240;2023-04-28T00:16:46;96187.78;;;9.05;66.59
12757;BME280;31601;48.042;12.240;2023-04-28T00:19:13;96185.31;;;9.03;66.75
12757;BME280;31601;48.042;12.240;2023-04-28T00:21:39;96185.41;;;8.95;66.71
12757;BME280;31601;48.042;12.240;2023-04-28T00:24:06;96183.38;;;8.82;66.80
12757;BME280;31601;48.042;12.240;2023-04-28T00:26:33;96181.50;;;8.91;66.51
12757;BME280;31601;48.042;12.240;2023-04-28T00:29:00;96177.91;;;8.92;66.34
12757;BME280;31601;48.042;12.240;2023-04-28T00:31:27;96180.63;;;8.75;66.48
12757;BME280;31601;48.042;12.240;2023-04-28T00:33:53;96181.09;;;8.79;66.36
12757;BME280;31601;48.042;12.240;2023-04-28T00:36:20;96176.50;;;8.81;66.28
12757;BME280;31601;48.042;12.240;2023-04-28T00:38:46;96177.63;;;8.87;66.57
12757;BME280;31601;48.042;12.240;2023-04-28T00:41:12;96168.06;;;8.94;66.36
12757;BME280;31601;48.042;12.240;2023-04-28T00:43:44;96165.09;;;8.97;65.99
12757;BME280;31601;48.042;12.240;2023-04-28T00:46:20;96164.91;;;8.99;65.69
12757;BME280;31601;48.042;12.240;2023-04-28T00:48:48;96163.31;;;8.98;65.68
12757;BME280;31601;48.042;12.240;2023-04-28T00:51:14;96164.91;;;8.99;65.78
12757;BME280;31601;48.042;12.240;2023-04-28T00:53:41;96163.31;;;8.98;65.75
12757;BME280;31601;48.042;12.240;2023-04-28T00:56:08;96153.03;;;8.96;66.21
12757;BME280;31601;48.042;12.240;2023-04-28T00:58:36;96158.25;;;8.96;66.17
12757;BME280;31601;48.042;12.240;2023-04-28T01:01:05;96146.59;;;8.99;66.22
12757;BME280;31601;48.042;12.240;2023-04-28T01:03:32;96152.31;;;8.79;67.15
12757;BME280;31601;48.042;12.240;2023-04-28T01:06:00;96149.13;;;8.69;67.32
12757;BME280;31601;48.042;12.240;2023-04-28T01:08:27;96154.47;;;8.75;67.50
12757;BME280;31601;48.042;12.240;2023-04-28T01:10:54;96151.91;;;8.67;67.35
12757;BME280;31601;48.042;12.240;2023-04-28T01:13:21;96147.88;;;8.56;67.75
12757;BME280;31601;48.042;12.240;2023-04-28T01:15:47;96144.97;;;8.43;67.78
12757;BME280;31601;48.042;12.240;2023-04-28T01:18:15;96134.94;;;8.32;68.44
12757;BME280;31601;48.042;12.240;2023-04-28T01:20:42;96138.31;;;8.40;68.23
12757;BME280;31601;48.042;12.240;2023-04-28T01:23:10;96145.16;;;8.50;67.52
12757;BME280;31601;48.042;12.240;2023-04-28T01:25:38;96141.25;;;8.46;67.61
12757;BME280;31601;48.042;12.240;2023-04-28T01:28:05;96141.25;;;8.46;67.84
12757;BME280;31601;48.042;12.240;2023-04-28T01:30:31;96135.03;;;8.47;67.49
12757;BME280;31601;48.042;12.240;2023-04-28T01:32:58;96130.81;;;8.37;67.35
12757;BME280;31601;48.042;12.240;2023-04-28T01:35:24;96135.91;;;8.31;68.07
12757;BME280;31601;48.042;12.240;2023-04-28T01:37:51;96132.19;;;8.25;67.98
12757;BME280;31601;48.042;12.240;2023-04-28T01:40:18;96126.09;;;8.33;67.77
12757;BME280;31601;48.042;12.240;2023-04-28T01:42:45;96128.22;;;8.37;67.55
12757;BME280;31601;48.042;12.240;2023-04-28T01:45:12;96118.53;;;8.46;67.80
12757;BME280;31601;48.042;12.240;2023-04-28T01:47:38;96125.81;;;8.59;67.16
12757;BME280;31601;48.042;12.240;2023-04-28T01:50:06;96134.41;;;8.68;67.27
12757;BME280;31601;48.042;12.240;2023-04-28T01:52:32;96131.09;;;8.74;67.15
12757;BME280;31601;48.042;12.240;2023-04-28T01:54:58;96128.25;;;8.84;67.30
12757;BME280;31601;48.042;12.240;2023-04-28T01:57:25;96122.84;;;8.85;67.16
12757;BME280;31601;48.042;12.240;2023-04-28T01:59:54;96129.69;;;8.86;66.96
12757;BME280;31601;48.042;12.240;2023-04-28T02:02:20;96132.44;;;8.93;67.08
12757;BME280;31601;48.042;12.240;2023-04-28T02:04:47;96127.84;;;8.95;67.02
12757;BME280;31601;48.042;12.240;2023-04-28T02:07:13;96127.47;;;8.98;66.98
12757;BME280;31601;48.042;12.240;2023-04-28T02:09:40;96131.75;;;8.99;66.54
12757;BME280;31601;48.042;12.240;2023-04-28T02:12:06;96134.81;;;9.03;66.84
12757;BME280;31601;48.042;12.240;2023-04-28T02:14:33;96135.59;;;9.03;66.75
12757;BME280;31601;48.042;12.240;2023-04-28T02:17:01;96139.16;;;9.10;66.64
12757;BME280;31601;48.042;12.240;2023-04-28T02:19:29;96137.66;;;9.16;66.55
12757;BME280;31601;48.042;12.240;2023-04-28T02:21:56;96138.28;;;9.18;66.26
12757;BME280;31601;48.042;12.240;2023-04-28T02:24:22;96136.47;;;9.19;66.59
12757;BME280;31601;48.042;12.240;2023-04-28T02:26:48;96127.13;;;9.01;66.81
12757;BME280;31601;48.042;12.240;2023-04-28T02:29:15;96129.16;;;8.91;67.15
12757;BME280;31601;48.042;12.240;2023-04-28T02:31:41;96130.34;;;8.88;66.91
12757;BME280;31601;48.042;12.240;2023-04-28T02:34:09;96126.34;;;8.77;67.01
12757;BME280;31601;48.042;12.240;2023-04-28T02:36:35;96121.66;;;8.88;66.97
12757;BME280;31601;48.042;12.240;2023-04-28T02:39:02;96122.50;;;8.88;66.68
12757;BME280;31601;48.042;12.240;2023-04-28T02:41:28;96123.41;;;8.95;66.87
12757;BME280;31601;48.042;12.240;2023-04-28T02:43:55;96115.19;;;8.99;66.76
12757;BME280;31601;48.042;12.240;2023-04-28T02:46:22;96116.38;;;8.96;67.08
12757;BME280;31601;48.042;12.240;2023-04-28T02:48:48;96120.38;;;9.07;67.06
12757;BME280;31601;48.042;12.240;2023-04-28T02:51:16;96112.00;;;9.11;66.77
12757;BME280;31601;48.042;12.240;2023-04-28T02:53:42;96121.81;;;9.09;66.92
12757;BME280;31601;48.042;12.240;2023-04-28T02:56:09;96116.19;;;9.21;66.60
12757;BME280;31601;48.042;12.240;2023-04-28T02:58:35;96113.59;;;9.12;66.49
12757;BME280;31601;48.042;12.240;2023-04-28T03:01:02;96108.53;;;8.96;67.38
12757;BME280;31601;48.042;12.240;2023-04-28T03:03:28;96116.75;;;8.93;67.37
12757;BME280;31601;48.042;12.240;2023-04-28T03:05:54;96098.53;;;9.00;67.38
12757;BME280;31601;48.042;12.240;2023-04-28T03:08:23;96102.78;;;9.01;67.34
12757;BME280;31601;48.042;12.240;2023-04-28T03:10:49;96105.75;;;9.12;67.22
12757;BME280;31601;48.042;12.240;2023-04-28T03:13:16;96098.13;;;9.26;67.11
12757;BME280;31601;48.042;12.240;2023-04-28T03:15:42;96091.63;;;9.37;66.87
12757;BME280;31601;48.042;12.240;2023-04-28T03:18:08;96082.69;;;9.31;67.26
12757;BME280;31601;48.042;12.240;2023-04-28T03:20:35;96105.91;;;9.49;66.72
12757;BME280;31601;48.042;12.240;2023-04-28T03:23:01;96136.72;;;9.47;67.90
12757;BME280;31601;48.042;12.240;2023-04-28T03:25:29;96124.81;;;9.59;67.81
12757;BME280;31601;48.042;12.240;2023-04-28T03:27:55;96122.25;;;9.36;68.47
12757;BME280;31601;48.042;12.240;2023-04-28T03:30:22;96121.44;;;9.50;68.10
12757;BME280;31601;48.042;12.240;2023-04-28T03:32:48;96113.50;;;9.44;68.12
12757;BME280;31601;48.042;12.240;2023-04-28T03:35:15;96089.19;;;9.35;68.82
12757;BME280;31601;48.042;12.240;2023-04-28T03:37:41;96080.19;;;9.38;69.28
12757;BME280;31601;48.042;12.240;2023-04-28T03:40:08;96078.72;;;9.35;69.38
12757;BME280;31601;48.042;12.240;2023-04-28T03:42:36;96071.50;;;9.37;69.28
12757;BME280;31601;48.042;12.240;2023-04-28T03:45:03;96071.31;;;9.24;69.65
12757;BME280;31601;48.042;12.240;2023-04-28T03:47:30;96074.94;;;9.38;69.64
12757;BME280;31601;48.042;12.240;2023-04-28T03:49:56;96080.53;;;9.49;69.59
12757;BME280;31601;48.042;12.240;2023-04-28T03:52:23;96080.09;;;9.61;69.49
12757;BME280;31601;48.042;12.240;2023-04-28T03:54:50;96079.28;;;9.45;70.19
12757;BME280;31601;48.042;12.240;2023-04-28T03:57:16;96079.28;;;9.45;69.91
12757;BME280;31601;48.042;12.240;2023-04-28T03:59:44;96078.44;;;9.15;70.29
12757;BME280;31601;48.042;12.240;2023-04-28T04:02:10;96086.53;;;9.05;70.38
12757;BME280;31601;48.042;12.240;2023-04-28T04:04:37;96085.28;;;9.31;69.74
12757;BME280;31601;48.042;12.240;2023-04-28T04:07:03;96085.41;;;9.53;69.46
12757;BME280;31601;48.042;12.240;2023-04-28T04:09:30;96085.41;;;9.67;69.31
12757;BME280;31601;48.042;12.240;2023-04-28T04:11:56;96085.31;;;9.76;69.25
12757;BME280;31601;48.042;12.240;2023-04-28T04:14:22;96069.22;;;9.79;69.54
12757;BME280;31601;48.042;12.240;2023-04-28T04:16:50;96072.94;;;9.84;69.58
12757;BME280;31601;48.042;12.240;2023-04-28T04:19:17;96079.94;;;9.99;69.37
12757;BME280;31601;48.042;12.240;2023-04-28T04:21:43;96075.59;;;10.06;69.19
12757;BME280;31601;48.042;12.240;2023-04-28T04:24:09;96087.66;;;9.85;69.67
12757;BME280;31601;48.042;12.240;2023-04-28T04:26:36;96087.47;;;9.72;69.80
12757;BME280;31601;48.042;12.240;2023-04-28T04:29:02;96084.56;;;9.82;69.83
12757;BME280;31601;48.042;12.240;2023-04-28T04:31:29;96084.84;;;9.87;69.29
12757;BME280;31601;48.042;12.240;2023-04-28T04:33:57;96077.09;;;9.64;70.53
12757;BME280;31601;48.042;12.240;2023-04-28T04:36:23;96076.28;;;9.78;70.18
12757;BME280;31601;48.042;12.240;2023-04-28T04:38:50;96077.28;;;9.47;70.91
12757;BME280;31601;48.042;12.240;2023-04-28T04:41:17;96089.94;;;9.44;70.67
12757;BME280;31601;48.042;12.240;2023-04-28T04:43:44;96098.41;;;9.46;71.03
12757;BME280;31601;48.042;12.240;2023-04-28T04:46:11;96094.06;;;9.68;70.95
12757;BME280;31601;48.042;12.240;2023-04-28T04:48:38;96102.66;;;9.77;70.83
12757;BME280;31601;48.042;12.240;2023-04-28T04:51:06;96117.22;;;9.79;70.40
12757;BME280;31601;48.042;12.240;2023-04-28T04:53:32;96108.06;;;9.90;70.06
12757;BME280;31601;48.042;12.240;2023-04-28T04:55:59;96099.13;;;9.99;69.83
12757;BME280;31601;48.042;12.240;2023-04-28T04:58:25;96112.66;;;10.03;69.94
12757;BME280;31601;48.042;12.240;2023-04-28T05:00:52;96096.38;;;10.23;69.60
12757;BME280;31601;48.042;12.240;2023-04-28T05:03:18;96096.44;;;10.29;69.79
12757;BME280;31601;48.042;12.240;2023-04-28T05:05:46;96099.22;;;10.28;69.87
12757;BME280;31601;48.042;12.240;2023-04-28T05:08:14;96097.78;;;10.40;69.60
12757;BME280;31601;48.042;12.240;2023-04-28T05:10:40;96092.41;;;10.48;68.88
12757;BME280;31601;48.042;12.240;2023-04-28T05:13:06;96089.66;;;10.20;69.59
12757;BME280;31601;48.042;12.240;2023-04-28T05:15:33;96091.19;;;10.29;69.04
12757;BME280;31601;48.042;12.240;2023-04-28T05:17:59;96082.56;;;10.50;68.56
12757;BME280;31601;48.042;12.240;2023-04-28T05:20:30;96085.53;;;10.69;68.60
12757;BME280;31601;48.042;12.240;2023-04-28T05:22:57;96081.53;;;10.73;69.14
12757;BME280;31601;48.042;12.240;2023-04-28T05:25:24;96081.28;;;10.89;68.33
12757;BME280;31601;48.042;12.240;2023-04-28T05:27:51;96075.53;;;10.79;67.55
12757;BME280;31601;48.042;12.240;2023-04-28T05:30:17;96086.53;;;10.89;67.80
12757;BME280;31601;48.042;12.240;2023-04-28T05:32:44;96081.06;;;11.13;67.51
12757;BME280;31601;48.042;12.240;2023-04-28T05:35:10;96079.75;;;11.23;67.42
12757;BME280;31601;48.042;12.240;2023-04-28T05:37:37;96081.16;;;11.26;66.50
12757;BME280;31601;48.042;12.240;2023-04-28T05:40:08;96075.00;;;11.40;66.19
12757;BME280;31601;48.042;12.240;2023-04-28T05:42:36;96071.34;;;11.41;66.61
12757;BME280;31601;48.042;12.240;2023-04-28T05:45:04;96071.25;;;11.56;65.71
12757;BME280;31601;48.042;12.240;2023-04-28T05:47:31;96074.16;;;11.68;65.32
12757;BME280;31601;48.042;12.240;2023-04-28T05:49:57;96071.63;;;11.53;64.83
12757;BME280;31601;48.042;12.240;2023-04-28T05:52:24;96069.16;;;11.45;65.76
12757;BME280;31601;48.042;12.240;2023-04-28T05:54:50;96068.03;;;11.61;65.65
12757;BME280;31601;48.042;12.240;2023-04-28T05:57:17;96069.59;;;11.55;66.33
12757;BME280;31601;48.042;12.240;2023-04-28T05:59:44;96070.84;;;11.59;65.85
12757;BME280;31601;48.042;12.240;2023-04-28T06:02:11;96066.88;;;11.77;65.72
12757;BME280;31601;48.042;12.240;2023-04-28T06:04:38;96067.66;;;11.64;65.94
12757;BME280;31601;48.042;12.240;2023-04-28T06:07:04;96077.00;;;11.80;65.58
12757;BME280;31601;48.042;12.240;2023-04-28T06:09:31;96064.34;;;11.90;65.58
12757;BME280;31601;48.042;12.240;2023-04-28T06:11:57;96068.03;;;11.96;65.78
12757;BME280;31601;48.042;12.240;2023-04-28T06:14:24;96065.03;;;12.06;65.64
12757;BME280;31601;48.042;12.240;2023-04-28T06:16:51;96064.53;;;11.89;66.97
12757;BME280;31601;48.042;12.240;2023-04-28T06:19:18;96067.94;;;11.82;67.57
12757;BME280;31601;48.042;12.240;2023-04-28T06:21:45;96071.28;;;11.98;66.92
12757;BME280;31601;48.042;12.240;2023-04-28T06:24:14;96065.28;;;12.17;66.37
12757;BME280;31601;48.042;12.240;2023-04-28T06:26:41;96072.97;;;12.26;66.65
12757;BME280;31601;48.042;12.240;2023-04-28T06:29:07;96076.84;;;12.30;67.18
12757;BME280;31601;48.042;12.240;2023-04-28T06:31:33;96076.66;;;12.45;66.97
12757;BME280;31601;48.042;12.240;2023-04-28T06:34:01;96085.19;;;12.53;66.95
12757;BME280;31601;48.042;12.240;2023-04-28T06:36:28;96086.78;;;12.48;66.87
12757;BME280;31601;48.042;12.240;2023-04-28T06:38:54;96086.63;;;12.56;66.57
12757;BME280;31601;48.042;12.240;2023-04-28T06:41:21;96087.44;;;12.63;66.21
12757;BME280;31601;48.042;12.240;2023-04-28T06:43:47;96082.97;;;12.50;66.19
12757;BME280;31601;48.042;12.240;2023-04-28T06:46:15;96088.66;;;12.67;65.95
12757;BME280;31601;48.042;12.240;2023-04-28T06:48:41;96091.09;;;12.76;66.38
12757;BME280;31601;48.042;12.240;2023-04-28T06:51:09;96087.47;;;12.77;66.41
12757;BME280;31601;48.042;12.240;2023-04-28T06:53:35;96090.50;;;13.00;65.93
12757;BME280;31601;48.042;12.240;2023-04-28T06:56:02;96094.75;;;13.08;65.42
12757;BME280;31601;48.042;12.240;2023-04-28T06:58:28;96092.53;;;13.12;64.98
12757;BME280;31601;48.042;12.240;2023-04-28T07:00:55;96099.63;;;13.04;64.97
12757;BME280;31601;48.042;12.240;2023-04-28T07:03:21;96108.94;;;13.00;65.08
12757;BME280;31601;48.042;12.240;2023-04-28T07:05:48;96110.16;;;12.98;64.98
12757;BME280;31601;48.042;12.240;2023-04-28T07:08:15;96117.47;;;13.02;64.88
12757;BME280;31601;48.042;12.240;2023-04-28T07:10:42;96114.22;;;12.87;65.04
12757;BME280;31601;48.042;12.240;2023-04-28T07:13:08;96106.91;;;13.09;64.49
12757;BME280;31601;48.042;12.240;2023-04-28T07:15:35;96101.25;;;13.19;64.42
12757;BME280;31601;48.042;12.240;2023-04-28T07:18:01;96100.63;;;13.43;63.70
12757;BME280;31601;48.042;12.240;2023-04-28T07:20:28;96099.22;;;13.54;63.22
12757;BME280;31601;48.042;12.240;2023-04-28T07:22:54;96083.41;;;13.61;63.07
12757;BME280;31601;48.042;12.240;2023-04-28T07:25:22;96077.09;;;13.69;61.86
12757;BME280;31601;48.042;12.240;2023-04-28T07:27:48;96081.13;;;13.78;61.40
12757;BME280;31601;48.042;12.240;2023-04-28T07:30:15;96074.25;;;13.70;61.84
12757;BME280;31601;48.042;12.240;2023-04-28T07:32:42;96076.19;;;13.95;61.63
12757;BME280;31601;48.042;12.240;2023-04-28T07:35:09;96079.00;;;14.00;61.66
12757;BME280;31601;48.042;12.240;2023-04-28T07:37:35;96076.75;;;14.10;61.84
12757;BME280;31601;48.042;12.240;2023-04-28T07:40:02;96089.28;;;14.22;60.93
12757;BME280;31601;48.042;12.240;2023-04-28T07:42:30;96080.50;;;14.28;60.67
12757;BME280;31601;48.042;12.240;2023-04-28T07:44:57;96087.72;;;14.07;61.54
12757;BME280;31601;48.042;12.240;2023-04-28T07:47:23;96085.91;;;14.01;61.90
12757;BME280;31601;48.042;12.240;2023-04-28T07:49:50;96086.34;;;13.98;62.26
12757;BME280;31601;48.042;12.240;2023-04-28T07:52:17;96091.06;;;13.83;62.47
12757;BME280;31601;48.042;12.240;2023-04-28T07:54:43;96089.84;;;13.78;63.16
12757;BME280;31601;48.042;12.240;2023-04-28T07:57:10;96080.03;;;13.99;62.52
12757;BME280;31601;48.042;12.240;2023-04-28T07:59:38;96080.44;;;14.03;62.57
12757;BME280;31601;48.042;12.240;2023-04-28T08:02:05;96084.31;;;13.87;62.16
12757;BME280;31601;48.042;12.240;2023-04-28T08:04:32;96083.34;;;13.81;61.79
12757;BME280;31601;48.042;12.240;2023-04-28T08:06:59;96078.47;;;13.85;61.40
12757;BME280;31601;48.042;12.240;2023-04-28T08:09:25;96089.84;;;13.78;62.25
12757;BME280;31601;48.042;12.240;2023-04-28T08:11:52;96083.19;;;13.56;62.27
12757;BME280;31601;48.042;12.240;2023-04-28T08:14:19;96078.50;;;13.65;62.77
12757;BME280;31601;48.042;12.240;2023-04-28T08:16:47;96084.56;;;13.78;62.33
12757;BME280;31601;48.042;12.240;2023-04-28T08:19:13;96089.38;;;13.95;62.04
12757;BME280;31601;48.042;12.240;2023-04-28T08:21:39;96087.50;;;14.09;61.77
12757;BME280;31601;48.042;12.240;2023-04-28T08:24:06;96089.72;;;14.05;62.17
12757;BME280;31601;48.042;12.240;2023-04-28T08:26:35;96089.03;;;13.71;62.14
12757;BME280;31601;48.042;12.240;2023-04-28T08:29:01;96085.78;;;13.83;62.32
12757;BME280;31601;48.042;12.240;2023-04-28T08:31:28;96092.22;;;13.87;62.22
12757;BME280;31601;48.042;12.240;2023-04-28T08:33:55;96090.81;;;13.91;62.11
12757;BME280;31601;48.042;12.240;2023-04-28T08:36:22;96086.56;;;13.83;62.51
12757;BME280;31601;48.042;12.240;2023-04-28T08:38:49;96083.72;;;13.85;62.79
12757;BME280;31601;48.042;12.240;2023-04-28T08:41:15;96087.78;;;13.81;63.02
12757;BME280;31601;48.042;12.240;2023-04-28T08:43:44;96088.31;;;14.09;63.03
12757;BME280;31601;48.042;12.240;2023-04-28T08:46:13;96081.94;;;14.24;63.73
12757;BME280;31601;48.042;12.240;2023-04-28T08:48:40;96084.78;;;14.29;63.61
12757;BME280;31601;48.042;12.240;2023-04-28T08:51:14;96075.19;;;14.41;62.85
12757;BME280;31601;48.042;12.240;2023-04-28T08:53:43;96079.78;;;14.53;62.70
12757;BME280;31601;48.042;12.240;2023-04-28T08:56:11;96072.06;;;14.51;62.84
12757;BME280;31601;48.042;12.240;2023-04-28T08:58:39;96065.50;;;14.67;63.73
12757;BME280;31601;48.042;12.240;2023-04-28T09:01:05;96073.47;;;14.54;63.77
12757;BME280;31601;48.042;12.240;2023-04-28T09:03:32;96063.19;;;14.77;63.33
12757;BME280;31601;48.042;12.240;2023-04-28T09:06:00;96068.00;;;14.87;63.28
12757;BME280;31601;48.042;12.240;2023-04-28T09:08:28;96073.34;;;15.06;63.26
12757;BME280;31601;48.042;12.240;2023-04-28T09:11:05;96065.63;;;15.04;63.07
12757;BME280;31601;48.042;12.240;2023-04-28T09:13:33;96066.28;;;15.25;62.80
12757;BME280;31601;48.042;12.240;2023-04-28T09:16:00;96058.13;;;15.01;63.08
12757;BME280;31601;48.042;12.240;2023-04-28T09:18:28;96062.28;;;15.15;62.30
12757;BME280;31601;48.042;12.240;2023-04-28T09:21:02;96050.19;;;15.01;63.29
12757;BME280;31601;48.042;12.240;2023-04-28T09:23:30;96037.53;;;15.10;62.97
12757;BME280;31601;48.042;12.240;2023-04-28T09:25:59;96041.97;;;15.16;63.43
12757;BME280;31601;48.042;12.240;2023-04-28T09:28:25;96044.81;;;15.14;63.41
12757;BME280;31601;48.042;12.240;2023-04-28T09:30:52;96039.78;;;15.31;63.41
12757;BME280;31601;48.042;12.240;2023-04-28T09:33:19;96039.13;;;15.36;63.16
12757;BME280;31601;48.042;12.240;2023-04-28T09:35:46;96038.53;;;15.34;62.69
12757;BME280;31601;48.042;12.240;2023-04-28T09:38:13;96037.34;;;15.30;63.16
12757;BME280;31601;48.042;12.240;2023-04-28T09:40:51;96033.69;;;15.31;63.56
12757;BME280;31601;48.042;12.240;2023-04-28T09:43:25;96028.63;;;15.29;64.31
12757;BME280;31601;48.042;12.240;2023-04-28T09:45:52;96025.59;;;15.26;64.64
12757;BME280;31601;48.042;12.240;2023-04-28T09:48:26;96025.91;;;15.36;64.87
12757;BME280;31601;48.042;12.240;2023-04-28T09:50:52;96026.03;;;15.22;66.18
12757;BME280;31601;48.042;12.240;2023-04-28T09:53:21;96022.50;;;15.29;66.42
12757;BME280;31601;48.042;12.240;2023-04-28T09:55:51;96018.63;;;15.31;65.46
12757;BME280;31601;48.042;12.240;2023-04-28T09:58:18;96019.06;;;15.28;66.09
12757;BME280;31601;48.042;12.240;2023-04-28T10:00:45;96015.78;;;15.33;65.60
12757;BME280;31601;48.042;12.240;2023-04-28T10:03:13;96010.56;;;15.26;65.86
12757;BME280;31601;48.042;12.240;2023-04-28T10:05:41;96010.38;;;15.21;66.97
12757;BME280;31601;48.042;12.240;2023-04-28T10:08:07;96009.59;;;15.20;67.17
12757;BME280;31601;48.042;12.240;2023-04-28T10:10:34;96003.13;;;15.16;66.66
12757;BME280;31601;48.042;12.240;2023-04-28T10:13:04;95995.72;;;15.25;67.05
12757;BME280;31601;48.042;12.240;2023-04-28T10:15:31;96001.69;;;15.39;66.39
12757;BME280;31601;48.042;12.240;2023-04-28T10:17:59;96000.22;;;15.43;66.71
12757;BME280;31601;48.042;12.240;2023-04-28T10:20:28;96004.19;;;15.52;66.24
12757;BME280;31601;48.042;12.240;2023-04-28T10:23:02;96000.50;;;15.53;65.58
12757;BME280;31601;48.042;12.240;2023-04-28T10:25:35;95991.84;;;15.65;65.42
12757;BME280;31601;48.042;12.240;2023-04-28T10:28:06;95996.53;;;15.63;65.59
12757;BME280;31601;48.042;12.240;2023-04-28T10:30:34;95987.16;;;15.48;66.87
12757;BME280;31601;48.042;12.240;2023-04-28T10:33:23;95989.91;;;15.72;66.38
12757;BME280;31601;48.042;12.240;2023-04-28T10:35:50;95994.84;;;15.68;66.39
12757;BME280;31601;48.042;12.240;2023-04-28T10:38:18;95976.44;;;15.62;66.67
12757;BME280;31601;48.042;12.240;2023-04-28T10:40:46;95968.94;;;15.77;66.50
12757;BME280;31601;48.042;12.240;2023-04-28T10:43:32;95974.03;;;15.90;65.64
12757;BME280;31601;48.042;12.240;2023-04-28T10:46:04;95967.75;;;15.73;65.71
12757;BME280;31601;48.042;12.240;2023-04-28T10:51:31;95969.81;;;15.71;65.87
12757;BME280;31601;48.042;12.240;2023-04-28T10:54:22;95963.78;;;15.82;66.10
12757;BME280;31601;48.042;12.240;2023-04-28T10:57:15;95966.00;;;15.97;65.81
12757;BME280;31601;48.042;12.240;2023-04-28T10:59:47;95967.13;;;15.89;65.78
12757;BME280;31601;48.042;12.240;2023-04-28T11:02:38;95969.94;;;15.95;65.09
12757;BME280;31601;48.042;12.240;2023-04-28T11:05:16;95964.44;;;16.08;65.03
12757;BME280;31601;48.042;12.240;2023-04-28T11:11:17;95968.66;;;15.97;65.40
12757;BME280;31601;48.042;12.240;2023-04-28T11:13:45;95957.50;;;15.95;65.39
12757;BME280;31601;48.042;12.240;2023-04-28T11:16:18;95960.72;;;15.97;65.54
12757;BME280;31601;48.042;12.240;2023-04-28T11:18:56;95958.53;;;15.94;65.49
12757;BME280;31601;48.042;12.240;2023-04-28T11:21:25;95957.28;;;15.97;65.88
12757;BME280;31601;48.042;12.240;2023-04-28T11:23:52;95960.25;;;15.88;66.07
12757;BME280;31601;48.042;12.240;2023-04-28T11:26:19;95967.97;;;15.90;66.45
12757;BME280;31601;48.042;12.240;2023-04-28T11:28:46;95974.41;;;15.94;66.00
12757;BME280;31601;48.042;12.240;2023-04-28T11:31:15;95966.69;;;15.92;65.95
12757;BME280;31601;48.042;12.240;2023-04-28T11:33:45;95984.09;;;16.00;65.91
12757;BME280;31601;48.042;12.240;2023-04-28T11:36:25;95971.81;;;16.06;66.43
12757;BME280;31601;48.042;12.240;2023-04-28T11:38:52;95966.56;;;16.29;65.94
12757;BME280;31601;48.042;12.240;2023-04-28T11:41:18;95964.88;;;16.35;65.31
12757;BME280;31601;48.042;12.240;2023-04-28T11:43:45;95975.72;;;16.45;64.73
12757;BME280;31601;48.042;12.240;2023-04-28T11:46:15;95978.16;;;16.47;64.47
12757;BME280;31601;48.042;12.240;2023-04-28T11:48:42;95973.84;;;16.34;64.83
12757;BME280;31601;48.042;12.240;2023-04-28T11:51:32;95982.47;;;16.29;65.20
12757;BME280;31601;48.042;12.240;2023-04-28T11:53:59;95977.03;;;16.24;65.18
12757;BME280;31601;48.042;12.240;2023-04-28T11:56:26;95979.41;;;16.14;66.07
12757;BME280;31601;48.042;12.240;2023-04-28T11:59:02;95975.56;;;16.28;65.83
12757;BME280;31601;48.042;12.240;2023-04-28T12:01:29;95973.72;;;16.29;66.16
12757;BME280;31601;48.042;12.240;2023-04-28T12:03:56;95971.53;;;16.26;66.05
12757;BME280;31601;48.042;12.240;2023-04-28T12:06:24;95984.09;;;16.31;66.19
12757;BME280;31601;48.042;12.240;2023-04-28T12:08:50;95969.16;;;16.36;66.28
12757;BME280;31601;48.042;12.240;2023-04-28T12:11:17;95967.09;;;16.50;66.49
12757;BME280;31601;48.042;12.240;2023-04-28T12:14:01;95971.84;;;16.83;66.27
12757;BME280;31601;48.042;12.240;2023-04-28T12:16:37;95976.03;;;17.03;65.32
12757;BME280;31601;48.042;12.240;2023-04-28T12:19:07;95959.16;;;17.45;64.51
12757;BME280;31601;48.042;12.240;2023-04-28T12:21:37;95970.47;;;17.81;63.47
12757;BME280;31601;48.042;12.240;2023-04-28T12:24:18;95968.34;;;18.06;62.51
12757;BME280;31601;48.042;12.240;2023-04-28T12:26:45;95968.81;;;18.03;61.59
12757;BME280;31601;48.042;12.240;2023-04-28T12:29:37;95974.53;;;17.83;61.99
12757;BME280;31601;48.042;12.240;2023-04-28T12:32:05;95965.25;;;17.57;62.17
12757;BME280;31601;48.042;12.240;2023-04-28T12:34:31;95973.59;;;17.49;62.58
12757;BME280;31601;48.042;12.240;2023-04-28T12:37:00;95971.06;;;17.30;63.52
12757;BME280;31601;48.042;12.240;2023-04-28T12:39:30;95973.50;;;17.20;63.89
12757;BME280;31601;48.042;12.240;2023-04-28T12:41:58;95969.91;;;17.14;63.33
12757;BME280;31601;48.042;12.240;2023-04-28T12:44:27;95963.50;;;17.10;63.64
12757;BME280;31601;48.042;12.240;2023-04-28T12:46:53;95962.31;;;16.94;64.38
12757;BME280;31601;48.042;12.240;2023-04-28T12:49:20;95963.81;;;17.02;64.56
12757;BME280;31601;48.042;12.240;2023-04-28T12:51:47;95970.50;;;17.05;64.38
12757;BME280;31601;48.042;12.240;2023-04-28T12:54:15;95968.31;;;17.02;64.47
12757;BME280;31601;48.042;12.240;2023-04-28T12:56:41;95969.34;;;17.00;64.88
12757;BME280;31601;48.042;12.240;2023-04-28T12:59:08;95970.84;;;17.20;64.22
12757;BME280;31601;48.042;12.240;2023-04-28T13:01:35;95967.72;;;17.23;63.90
12757;BME280;31601;48.042;12.240;2023-04-28T13:04:01;95972.00;;;17.12;63.96